Time;durP1;ratioP1;P1;durP2;ratioP2;P2;SDS_P1;SDS_P2;PMS_P1;PMS_P2;Temp;Humidity;BMP_temperature;BMP_pressure;BME280_temperature;BME280_humidity;BME280_pressure;Samples;Min_cycle;Max_cycle;Signal;HPM_P1;HPM_P2
2021/10/09 00:00:53;;;;;;;39.67;17.83;;;;;;;5.39;100.00;99098.22;4985986;28;20058;-83
2021/10/09 00:03:20;;;;;;;37.13;17.38;;;;;;;5.41;100.00;99092.59;4983496;28;20047;-82
2021/10/09 00:05:46;;;;;;;32.72;16.60;;;;;;;5.43;100.00;99093.16;4988663;28;20027;-81
2021/10/09 00:08:15;;;;;;;39.13;16.95;;;;;;;5.43;100.00;99093.97;4994104;23;20050;-83
2021/10/09 00:10:43;;;;;;;41.42;17.38;;;;;;;5.37;100.00;99086.06;4957617;28;20046;-81
2021/10/09 00:13:11;;;;;;;40.05;17.30;;;;;;;5.48;100.00;99095.91;4956749;28;20051;-81
2021/10/09 00:15:37;;;;;;;33.67;16.58;;;;;;;5.49;100.00;99094.84;4938315;28;20035;-81
2021/10/09 00:18:04;;;;;;;35.95;17.58;;;;;;;5.51;100.00;99090.06;4938730;28;20137;-81
2021/10/09 00:20:32;;;;;;;35.20;17.85;;;;;;;5.46;100.00;99098.84;4954899;28;20110;-81
2021/10/09 00:22:59;;;;;;;31.50;17.05;;;;;;;5.47;100.00;99094.31;4955374;28;20051;-80
2021/10/09 00:25:27;;;;;;;36.28;17.73;;;;;;;5.45;100.00;99081.09;4939378;28;20046;-80
2021/10/09 00:27:53;;;;;;;36.45;17.08;;;;;;;5.47;100.00;99089.72;4954493;28;20253;-80
2021/10/09 00:30:20;;;;;;;36.35;17.02;;;;;;;5.37;100.00;99083.38;4956001;28;20149;-82
2021/10/09 00:32:47;;;;;;;36.72;17.40;;;;;;;5.34;100.00;99078.53;4957398;28;20085;-81
2021/10/09 00:35:13;;;;;;;32.35;17.30;;;;;;;5.31;100.00;99073.63;4941444;28;20047;-80
2021/10/09 00:37:40;;;;;;;32.10;16.38;;;;;;;5.29;100.00;99078.44;4929147;29;20162;-82
2021/10/09 00:40:07;;;;;;;33.50;16.42;;;;;;;5.27;100.00;99075.16;4924107;29;20295;-81
2021/10/09 00:42:35;;;;;;;34.20;16.20;;;;;;;5.22;100.00;99073.22;4923671;29;20051;-83
2021/10/09 00:45:02;;;;;;;32.38;16.17;;;;;;;5.20;100.00;99083.41;4924021;29;20496;-81
2021/10/09 00:47:33;;;;;;;40.17;16.75;;;;;;;5.25;100.00;99070.06;4937606;29;20043;-80
2021/10/09 00:50:05;;;;;;;32.17;15.93;;;;;;;5.11;100.00;99067.97;4941698;29;20110;-82
2021/10/09 00:52:34;;;;;;;35.35;16.67;;;;;;;5.08;100.00;99071.13;4930940;29;20106;-79
2021/10/09 00:55:04;;;;;;;37.85;17.10;;;;;;;4.98;100.00;99077.94;4926916;29;20055;-80
2021/10/09 00:57:35;;;;;;;35.65;17.00;;;;;;;4.94;100.00;99057.22;4941766;29;20507;-82
2021/10/09 01:00:04;;;;;;;38.83;17.10;;;;;;;4.98;100.00;99077.16;4928046;29;20070;-81
2021/10/09 01:02:34;;;;;;;34.28;16.35;;;;;;;5.03;100.00;99061.91;4927173;29;20047;-82
2021/10/09 01:05:09;;;;;;;34.28;18.15;;;;;;;5.00;100.00;99064.28;4941990;29;20535;-82
2021/10/09 01:07:36;;;;;;;36.97;17.52;;;;;;;5.01;100.00;99069.41;4928550;29;20691;-82
2021/10/09 01:10:03;;;;;;;36.85;18.88;;;;;;;5.00;100.00;99072.34;4942268;29;20590;-82
2021/10/09 01:12:31;;;;;;;36.10;18.40;;;;;;;5.00;100.00;99069.66;4956702;29;20074;-80
2021/10/09 01:15:20;;;;;;;36.08;18.55;;;;;;;5.05;100.00;99069.75;4949555;29;20435;-81
2021/10/09 01:17:47;;;;;;;33.70;17.35;;;;;;;5.05;100.00;99060.31;4961125;29;20035;-81
2021/10/09 01:20:15;;;;;;;36.92;18.02;;;;;;;4.92;100.00;99062.19;4943660;29;20062;-81
2021/10/09 01:22:46;;;;;;;35.22;16.90;;;;;;;4.82;100.00;99127.22;4933956;29;20043;-82
2021/10/09 01:25:13;;;;;;;35.08;17.15;;;;;;;4.82;100.00;99057.31;4964980;28;20091;-81
2021/10/09 01:27:41;;;;;;;38.00;16.35;;;;;;;4.80;100.00;99053.22;4940519;29;20043;-81
2021/10/09 01:30:11;;;;;;;34.22;16.73;;;;;;;4.80;100.00;99039.81;4926452;29;20282;-82
2021/10/09 01:32:40;;;;;;;35.08;17.17;;;;;;;4.88;100.00;99053.63;4958391;28;20042;-82
2021/10/09 01:35:10;;;;;;;39.40;17.00;;;;;;;4.81;100.00;80898.28;4997648;28;20126;-80
2021/10/09 01:37:41;;;;;;;40.03;17.02;;;;;;;4.80;100.00;99067.44;4980262;28;20046;-81
2021/10/09 01:40:09;;;;;;;37.95;16.75;;;;;;;4.75;100.00;99061.19;4979150;28;20046;-82
2021/10/09 01:42:37;;;;;;;37.70;17.35;;;;;;;4.71;100.00;99066.22;4963148;28;20050;-81
2021/10/09 01:45:06;;;;;;;34.20;16.48;;;;;;;4.72;100.00;99059.78;4980022;28;20038;-81
2021/10/09 01:47:32;;;;;;;37.95;18.77;;;;;;;4.73;100.00;99066.78;4980069;28;20050;-82
2021/10/09 01:49:59;;;;;;;39.53;17.08;;;;;;;4.77;100.00;99062.59;4979283;28;20050;-80
2021/10/09 01:52:26;;;;;;;36.35;17.42;;;;;;;4.74;100.00;99057.69;4978443;28;20600;-81
2021/10/09 01:54:53;;;;;;;38.70;16.83;;;;;;;4.67;100.00;99051.66;4962126;28;20061;-82
2021/10/09 01:57:19;;;;;;;37.88;17.48;;;;;;;4.61;100.00;99055.31;4979875;28;20046;-79
2021/10/09 01:59:51;;;;;;;38.50;17.17;;;;;;;4.60;100.00;99042.13;4978731;28;20042;-81
2021/10/09 02:02:18;;;;;;;36.63;16.90;;;;;;;4.60;100.00;99037.59;4978670;28;20673;-80
2021/10/09 02:04:45;;;;;;;39.20;16.60;;;;;;;4.58;100.00;99055.78;4979816;28;20137;-80
2021/10/09 02:07:19;;;;;;;33.67;16.95;;;;;;;4.50;100.00;99053.50;4961958;28;20061;-81
2021/10/09 02:09:46;;;;;;;38.95;17.67;;;;;;;4.50;100.00;99053.50;4961655;28;20082;-81
2021/10/09 02:12:12;;;;;;;33.20;16.42;;;;;;;4.41;100.00;99054.97;4982862;28;20069;-81
2021/10/09 02:25:26;;;;;;;32.55;15.60;;;;;;;-141.50;100.00;63355.56;4983767;28;20145;-81
2021/10/09 02:27:58;;;;;;;32.95;16.45;;;;;;;-141.50;100.00;63355.56;4987106;28;20078;-82
2021/10/09 02:30:26;;;;;;;41.05;17.55;;;;;;;-141.50;100.00;63355.56;4986609;28;20113;-83
2021/10/09 02:32:54;;;;;;;34.88;16.25;;;;;;;-141.50;100.00;63355.56;4993604;28;20051;-84
2021/10/09 02:35:28;;;;;;;32.85;16.42;;;;;;;-141.50;100.00;63355.56;4998421;28;20136;-82
2021/10/09 02:37:55;;;;;;;31.83;15.10;;;;;;;-141.50;100.00;63355.56;4996692;28;20057;-82
2021/10/09 02:40:22;;;;;;;40.63;16.35;;;;;;;-141.50;100.00;63355.56;4994721;28;20054;-81
2021/10/09 02:42:57;;;;;;;35.15;16.45;;;;;;;-141.50;100.00;63355.56;4996930;28;20051;-84
2021/10/09 02:45:31;;;;;;;23.17;12.40;;;;;;;-141.50;100.00;63355.56;4981872;28;20041;-84
2021/10/09 02:48:16;;;;;;;38.90;15.95;;;;;;;-141.50;100.00;63355.56;4997611;28;20050;-81
2021/10/09 02:50:51;;;;;;;33.55;15.77;;;;;;;-141.50;100.00;63355.56;4996621;28;20060;-82
2021/10/09 02:53:20;;;;;;;31.95;16.15;;;;;;;-141.50;100.00;63355.56;4979734;28;20041;-83
2021/10/09 02:55:49;;;;;;;35.67;15.95;;;;;;;-141.50;100.00;63355.56;4997086;28;20097;-82
2021/10/09 02:58:26;;;;;;;28.80;14.45;;;;;;;-141.50;100.00;63355.56;4999342;28;20073;-84
2021/10/09 03:00:54;;;;;;;29.65;14.95;;;;;;;-141.50;100.00;63355.56;4997850;28;20119;-80
2021/10/09 03:03:32;;;;;;;29.33;14.68;;;;;;;-141.50;100.00;63355.56;4994490;28;20054;-80
2021/10/09 03:06:02;;;;;;;31.63;14.70;;;;;;;-141.50;100.00;63355.56;4994987;28;20046;-83
2021/10/09 03:08:30;;;;;;;35.40;15.00;;;;;;;-141.50;100.00;63355.56;4993972;28;20077;-80
2021/10/09 03:11:09;;;;;;;36.22;15.50;;;;;;;-141.50;100.00;63355.56;4996737;28;20407;-81
2021/10/09 03:13:45;;;;;;;35.30;15.93;;;;;;;-141.50;100.00;63355.56;4998055;28;20030;-81
2021/10/09 03:16:24;;;;;;;32.05;16.30;;;;;;;-141.50;100.00;63355.56;4981027;28;20109;-80
2021/10/09 03:18:56;;;;;;;32.15;16.58;;;;;;;-141.50;100.00;63355.56;4982061;28;20042;-83
2021/10/09 03:21:30;;;;;;;32.85;15.50;;;;;;;-141.50;100.00;63355.56;4997068;28;20034;-85
2021/10/09 03:24:00;;;;;;;38.10;17.42;;;;;;;-141.50;100.00;63355.56;4981737;28;20046;-82
2021/10/09 03:26:35;;;;;;;36.55;17.55;;;;;;;-141.50;100.00;63355.56;4993665;28;20062;-82
2021/10/09 03:29:11;;;;;;;34.72;16.15;;;;;;;-141.50;100.00;63355.56;4992614;28;20073;-86
2021/10/09 03:31:43;;;;;;;34.58;15.10;;;;;;;-141.50;100.00;63355.56;4991231;28;20073;-83
2021/10/09 03:34:15;;;;;;;33.05;15.90;;;;;;;-141.50;100.00;63355.56;4971299;28;20137;-81
2021/10/09 03:36:46;;;;;;;38.95;17.13;;;;;;;-141.50;100.00;63355.56;4979053;28;20046;-82
2021/10/09 03:39:17;;;;;;;40.13;17.90;;;;;;;-141.50;100.00;63355.56;4977179;28;20048;-83
2021/10/09 03:41:48;;;;;;;34.92;16.60;;;;;;;-141.50;100.00;63355.56;4977433;28;20046;-82
2021/10/09 03:44:15;;;;;;;35.92;16.27;;;;;;;-141.50;100.00;63355.56;4977227;28;20581;-83
2021/10/09 03:46:47;;;;;;;32.55;15.18;;;;;;;-141.50;100.00;63355.56;4976411;28;20166;-83
2021/10/09 03:54:45;;;;;;;28.10;13.23;;;;;;;-141.50;100.00;63355.56;4990710;28;20046;-81
2021/10/09 03:57:12;;;;;;;31.73;16.02;;;;;;;-141.50;100.00;63355.56;4956257;28;20413;-82
2021/10/09 03:59:38;;;;;;;37.20;16.45;;;;;;;-141.50;100.00;63355.56;4958229;28;20423;-84
2021/10/09 04:02:05;;;;;;;42.28;16.50;;;;;;;-141.50;100.00;63355.56;4941762;28;20081;-84
2021/10/09 04:04:32;;;;;;;30.83;16.85;;;;;;;-141.50;100.00;63355.56;4949876;28;20135;-82
2021/10/09 04:06:59;;;;;;;37.30;16.83;;;;;;;-141.50;100.00;63355.56;4946403;28;20078;-82
2021/10/09 04:09:25;;;;;;;35.80;16.95;;;;;;;-141.50;100.00;63355.56;4948754;28;20038;-83
2021/10/09 04:11:52;;;;;;;36.05;16.90;;;;;;;-141.50;100.00;63355.56;4949174;28;20065;-82
2021/10/09 04:14:19;;;;;;;43.30;18.08;;;;;;;-141.50;100.00;63355.56;4950906;28;20058;-83
2021/10/09 04:16:46;;;;;;;35.17;16.95;;;;;;;-141.50;100.00;63355.56;4952478;28;20081;-83
2021/10/09 04:19:13;;;;;;;39.75;17.35;;;;;;;-141.50;100.00;63355.56;4950857;28;20625;-80
2021/10/09 04:21:44;;;;;;;37.17;16.05;;;;;;;-141.50;100.00;63355.56;4951229;28;20549;-82
2021/10/09 04:24:10;;;;;;;45.13;16.60;;;;;;;-141.50;100.00;63355.56;4946515;29;20082;-82
2021/10/09 04:26:38;;;;;;;38.60;17.10;;;;;;;-141.50;100.00;63355.56;4954637;28;20047;-84
2021/10/09 04:29:04;;;;;;;38.20;18.35;;;;;;;-141.50;100.00;63355.56;4949373;29;20146;-81
2021/10/09 04:31:34;;;;;;;45.85;18.48;;;;;;;-141.50;100.00;63355.56;4965268;28;20062;-81
2021/10/09 04:34:04;;;;;;;38.13;17.08;;;;;;;-141.50;100.00;63355.56;4934000;29;20139;-81
2021/10/09 04:36:33;;;;;;;41.78;17.33;;;;;;;-141.50;100.00;63355.56;4968171;29;20044;-82
2021/10/09 04:39:00;;;;;;;41.05;18.10;;;;;;;-141.50;100.00;63355.56;4974504;28;20067;-81
2021/10/09 04:41:28;;;;;;;37.15;17.45;;;;;;;-141.50;100.00;63355.56;4957701;28;20128;-81
2021/10/09 04:43:56;;;;;;;39.70;18.02;;;;;;;-141.50;100.00;63355.56;4953439;29;20058;-82
2021/10/09 04:46:28;;;;;;;37.63;16.92;;;;;;;-141.50;100.00;63355.56;4976372;29;20054;-83
2021/10/09 04:49:00;;;;;;;41.40;17.65;;;;;;;-141.50;100.00;63355.56;4976836;28;20032;-83
2021/10/09 04:51:35;;;;;;;30.40;12.73;;;;;;;-141.50;100.00;63355.56;4970402;29;20106;-81
2021/10/09 04:54:06;;;;;;;28.00;12.48;;;;;;;-141.50;100.00;63355.56;4969095;29;20047;-80
2021/10/09 04:56:33;;;;;;;35.90;16.95;;;;;;;-141.50;100.00;63355.56;4959233;29;20138;-82
2021/10/09 04:59:00;;;;;;;35.75;16.23;;;;;;;-141.50;100.00;63355.56;4955604;28;20521;-82
2021/10/09 05:01:27;;;;;;;34.65;16.52;;;;;;;-141.50;100.00;63355.56;4924436;29;20058;-84
2021/10/09 05:03:54;;;;;;;34.00;16.58;;;;;;;-141.50;100.00;63355.56;4940044;29;20134;-82
2021/10/09 05:06:20;;;;;;;39.13;16.08;;;;;;;-141.50;100.00;63355.56;4954833;28;20151;-81
2021/10/09 05:08:47;;;;;;;35.45;16.67;;;;;;;-141.50;100.00;63355.56;4953379;28;20499;-83
2021/10/09 05:11:17;;;;;;;34.15;16.60;;;;;;;-141.50;100.00;63355.56;4969582;28;20527;-83
2021/10/09 05:13:44;;;;;;;38.72;16.80;;;;;;;-141.50;100.00;63355.56;4981653;28;20110;-81
2021/10/09 05:16:11;;;;;;;33.28;15.85;;;;;;;-141.50;100.00;63355.56;4964370;28;20289;-81
2021/10/09 05:18:38;;;;;;;35.53;15.73;;;;;;;-141.50;100.00;63355.56;4980490;28;20073;-81
2021/10/09 05:21:17;;;;;;;37.08;15.43;;;;;;;-141.50;100.00;63355.56;4961326;28;20136;-82
2021/10/09 05:23:48;;;;;;;33.05;14.95;;;;;;;-141.50;100.00;63355.56;4977300;28;20069;-83
2021/10/09 05:26:14;;;;;;;32.42;16.38;;;;;;;-141.50;100.00;63355.56;4960555;28;20082;-80
2021/10/09 05:28:46;;;;;;;37.00;16.70;;;;;;;-141.50;100.00;63355.56;4975762;28;20116;-81
2021/10/09 05:31:29;;;;;;;37.35;15.85;;;;;;;-141.50;100.00;63355.56;4961337;28;20149;-81
2021/10/09 05:33:58;;;;;;;41.03;16.40;;;;;;;-141.50;100.00;63355.56;4961363;28;20445;-80
2021/10/09 05:36:26;;;;;;;40.45;16.85;;;;;;;-141.50;100.00;63355.56;4962140;28;20064;-82
2021/10/09 05:38:53;;;;;;;33.90;16.17;;;;;;;-141.50;100.00;63355.56;4960959;28;20100;-83
2021/10/09 05:41:21;;;;;;;31.35;15.40;;;;;;;-141.50;100.00;63355.56;4962019;28;20080;-82
2021/10/09 05:43:48;;;;;;;36.47;15.07;;;;;;;-141.50;100.00;63355.56;4977525;28;20074;-81
2021/10/09 05:46:17;;;;;;;36.17;16.70;;;;;;;-141.50;100.00;63355.56;4961515;28;20124;-81
2021/10/09 05:48:44;;;;;;;35.17;16.38;;;;;;;-141.50;100.00;63355.56;4977770;28;20054;-82
2021/10/09 05:56:22;;;;;;;43.10;17.40;;;;;;;-141.50;100.00;63355.56;4977200;28;20058;-84
2021/10/09 07:01:15;;;;;;;40.13;19.65;;;;;;;-141.50;100.00;63355.56;4895529;29;20532;-77
2021/10/09 07:03:42;;;;;;;42.72;20.60;;;;;;;-141.50;100.00;63355.56;4910272;29;20044;-78
2021/10/09 07:06:10;;;;;;;45.15;21.98;;;;;;;-141.50;100.00;63355.56;4896930;29;20066;-80
2021/10/09 07:08:36;;;;;;;46.83;22.88;;;;;;;-141.50;100.00;63355.56;4896780;29;20052;-80
2021/10/09 07:11:03;;;;;;;44.17;22.63;;;;;;;-141.50;100.00;63355.56;4910304;29;20052;-79
2021/10/09 07:13:30;;;;;;;44.42;19.23;;;;;;;-141.50;100.00;63355.56;4893897;29;20080;-78
2021/10/09 07:15:57;;;;;;;43.28;19.27;;;;;;;-141.50;100.00;63355.56;4910387;29;20056;-78
2021/10/09 07:18:23;;;;;;;37.15;18.33;;;;;;;-141.50;100.00;63355.56;4895276;29;20083;-80
2021/10/09 07:20:50;;;;;;;45.50;19.02;;;;;;;-141.50;100.00;63355.56;4896109;29;20044;-78
2021/10/09 07:23:18;;;;;;;38.47;16.13;;;;;;;-141.50;100.00;63355.56;4894918;29;20060;-78
2021/10/09 07:25:45;;;;;;;36.88;16.67;;;;;;;-141.50;100.00;63355.56;4895077;29;20148;-79
2021/10/09 07:28:11;;;;;;;32.15;15.93;;;;;;;-141.50;100.00;63355.56;4894423;29;20041;-78
2021/10/09 07:30:42;;;;;;;33.60;15.88;;;;;;;-141.50;100.00;63355.56;4895295;29;20116;-80
2021/10/09 07:33:10;;;;;;;32.38;13.98;;;;;;;-141.50;100.00;63355.56;4896805;29;20104;-77
2021/10/09 07:35:38;;;;;;;32.10;12.70;;;;;;;-141.50;100.00;63355.56;4911095;29;20048;-77
2021/10/09 07:38:04;;;;;;;31.27;10.27;;;;;;;-141.50;100.00;63355.56;4893940;29;20044;-79
2021/10/09 07:40:32;;;;;;;26.45;10.15;;;;;;;-141.50;100.00;63355.56;4912854;29;20048;-78
2021/10/09 07:42:59;;;;;;;19.02;9.73;;;;;;;-141.50;100.00;63355.56;4893934;29;20131;-77
2021/10/09 07:45:26;;;;;;;31.10;10.70;;;;;;;-141.50;100.00;63355.56;4909381;29;20048;-77
2021/10/09 07:47:52;;;;;;;25.17;10.20;;;;;;;-141.50;100.00;63355.56;4893318;29;20507;-78
2021/10/09 07:50:19;;;;;;;26.38;10.68;;;;;;;-141.50;100.00;63355.56;4894886;29;20102;-77
2021/10/09 07:52:46;;;;;;;26.85;9.70;;;;;;;-141.50;100.00;63355.56;4895876;29;20056;-78
2021/10/09 07:55:13;;;;;;;27.48;9.38;;;;;;;-141.50;100.00;63355.56;4894459;29;20071;-78
2021/10/09 07:57:39;;;;;;;23.38;10.50;;;;;;;-141.50;100.00;63355.56;4895169;29;20055;-80
2021/10/09 08:00:07;;;;;;;26.70;8.70;;;;;;;-141.50;100.00;63355.56;4895804;29;20630;-77
2021/10/09 08:02:35;;;;;;;24.83;8.70;;;;;;;-141.50;100.00;63355.56;4894960;29;20078;-77
2021/10/09 08:05:04;;;;;;;20.75;8.05;;;;;;;-141.50;100.00;63355.56;4911816;29;20103;-80
2021/10/09 08:07:31;;;;;;;19.95;8.45;;;;;;;-141.50;100.00;63355.56;4895966;29;20056;-80
2021/10/09 08:09:58;;;;;;;18.20;8.30;;;;;;;-141.50;100.00;63355.56;4897160;29;20056;-80
2021/10/09 08:12:24;;;;;;;25.35;9.27;;;;;;;-141.50;100.00;63355.56;4895704;29;20072;-78
2021/10/09 08:14:51;;;;;;;25.13;8.85;;;;;;;-141.50;100.00;63355.56;4894031;29;20045;-79
2021/10/09 08:17:18;;;;;;;26.98;8.80;;;;;;;-141.50;100.00;63355.56;4894500;29;20140;-79
2021/10/09 08:19:45;;;;;;;27.75;9.35;;;;;;;-141.50;100.00;63355.56;4921872;29;20052;-77
2021/10/09 08:22:12;;;;;;;26.42;8.82;;;;;;;-141.50;100.00;63355.56;4925148;29;20084;-79
2021/10/09 08:27:20;;;;;;;18.05;8.45;;;;;;;-141.50;100.00;63355.56;4907150;29;20036;-79
2021/10/09 08:36:02;;;;;;;21.10;7.68;;;;;;;-141.50;100.00;63355.56;4895334;29;20577;-80
2021/10/09 08:40:56;;;;;;;16.98;7.75;;;;;;;-141.50;100.00;63355.56;4898408;29;20075;-79
2021/10/09 08:43:22;;;;;;;15.30;7.63;;;;;;;-141.50;100.00;63355.56;4897218;29;20052;-79
2021/10/09 08:45:49;;;;;;;21.38;7.68;;;;;;;-141.50;100.00;63355.56;4914876;29;20082;-79
2021/10/09 08:48:17;;;;;;;21.27;8.45;;;;;;;-141.50;100.00;63355.56;4908370;29;20045;-78
2021/10/09 08:50:45;;;;;;;17.95;7.97;;;;;;;-141.50;100.00;63355.56;4912273;29;20048;-80
2021/10/09 08:53:12;;;;;;;20.90;7.85;;;;;;;-141.50;100.00;63355.56;4931526;29;20099;-80
2021/10/09 08:55:46;;;;;;;23.00;7.55;;;;;;;-141.50;100.00;63355.56;4915757;29;20051;-80
2021/10/09 08:58:30;;;;;;;22.35;7.35;;;;;;;-141.50;100.00;63355.56;4916254;29;20079;-81
2021/10/09 09:04:44;;;;;;;22.23;6.90;;;;;;;-141.50;100.00;63355.56;4923879;29;20076;-78
2021/10/09 09:26:54;;;;;;;18.58;6.32;;;;;;;-141.50;100.00;63355.56;4925917;29;20039;-79
2021/10/09 09:40:06;;;;;;;20.58;6.03;;;;;;;-141.50;100.00;63355.56;4912292;29;20420;-78
2021/10/09 09:42:45;;;;;;;16.30;5.25;;;;;;;-141.50;100.00;63355.56;4912006;29;20125;-79
2021/10/09 09:45:18;;;;;;;19.30;5.75;;;;;;;-141.50;100.00;63355.56;4914037;29;20052;-78
2021/10/09 09:47:45;;;;;;;22.02;5.30;;;;;;;-141.50;100.00;63355.56;4932240;29;20122;-80
2021/10/09 09:50:14;;;;;;;12.90;5.63;;;;;;;-141.50;100.00;63355.56;4932162;29;20059;-79
2021/10/09 09:52:43;;;;;;;14.57;5.90;;;;;;;-141.50;100.00;63355.56;4929146;29;20044;-80
2021/10/09 09:55:12;;;;;;;17.90;5.90;;;;;;;-141.50;100.00;63355.56;4913441;29;20449;-78
2021/10/09 09:57:39;;;;;;;18.38;5.85;;;;;;;-141.50;100.00;63355.56;4910104;29;20117;-78
2021/10/09 10:00:14;;;;;;;16.23;5.28;;;;;;;-141.50;100.00;63355.56;4911491;29;20623;-78
2021/10/09 10:02:47;;;;;;;15.75;5.78;;;;;;;-141.50;100.00;63355.56;4911776;29;20040;-78
2021/10/09 10:05:14;;;;;;;15.68;6.40;;;;;;;-141.50;100.00;63355.56;4913263;29;20044;-78
2021/10/09 10:07:41;;;;;;;14.02;6.07;;;;;;;-141.50;100.00;63355.56;4912857;29;20043;-80
2021/10/09 10:10:09;;;;;;;10.57;5.43;;;;;;;-141.50;100.00;63355.56;4912957;29;20125;-80
2021/10/09 10:12:37;;;;;;;10.93;5.25;;;;;;;-141.50;100.00;63355.56;4910957;29;20606;-80
2021/10/09 10:15:08;;;;;;;14.82;5.55;;;;;;;-141.50;100.00;63355.56;4913532;29;20048;-80
2021/10/09 10:17:43;;;;;;;16.35;5.53;;;;;;;-141.50;100.00;63355.56;4913050;29;20036;-80
2021/10/09 10:20:18;;;;;;;13.07;5.45;;;;;;;-141.50;100.00;63355.56;4912269;29;20415;-78
2021/10/09 10:22:45;;;;;;;14.25;4.88;;;;;;;-141.50;100.00;63355.56;4912859;29;20107;-79
2021/10/09 10:25:15;;;;;;;11.55;5.05;;;;;;;-141.50;100.00;63355.56;4931033;29;20048;-78
2021/10/09 10:27:41;;;;;;;13.40;5.47;;;;;;;-141.50;100.00;63355.56;4929699;29;20102;-79
2021/10/09 10:30:14;;;;;;;10.30;5.32;;;;;;;-141.50;100.00;63355.56;4929805;29;20055;-79
2021/10/09 10:32:45;;;;;;;12.25;5.07;;;;;;;-141.50;100.00;63355.56;4928460;29;20396;-79
2021/10/09 10:35:30;;;;;;;13.30;5.20;;;;;;;-141.50;100.00;63355.56;4895771;29;20074;-79
2021/10/09 10:38:05;;;;;;;15.35;5.07;;;;;;;-141.50;100.00;63355.56;4899129;29;20060;-80
2021/10/09 10:40:49;;;;;;;16.02;5.00;;;;;;;-141.50;100.00;63355.56;4920086;29;20128;-79
2021/10/09 10:43:34;;;;;;;11.25;4.90;;;;;;;-141.50;100.00;63355.56;4889977;29;20056;-81
2021/10/09 10:46:06;;;;;;;12.32;4.90;;;;;;;-141.50;100.00;63355.56;4902243;29;20588;-80
2021/10/09 10:48:54;;;;;;;15.23;5.25;;;;;;;-141.50;100.00;63355.56;4902467;29;20044;-78
2021/10/09 10:57:00;;;;;;;9.48;4.55;;;;;;;-141.50;100.00;63355.56;4911905;29;20044;-78
2021/10/09 10:59:28;;;;;;;12.43;5.18;;;;;;;-141.50;100.00;63355.56;4894557;29;20150;-79
2021/10/09 11:02:11;;;;;;;12.65;4.55;;;;;;;-141.50;100.00;63355.56;4911829;29;20052;-80
2021/10/09 11:04:39;;;;;;;9.15;4.55;;;;;;;-141.50;100.00;63355.56;4894404;29;20496;-78
2021/10/09 11:07:06;;;;;;;14.35;5.25;;;;;;;-141.50;100.00;63355.56;4893497;29;20463;-80
2021/10/09 11:09:34;;;;;;;11.10;5.03;;;;;;;-141.50;100.00;63355.56;4893024;29;20107;-78
2021/10/09 11:12:01;;;;;;;12.95;4.97;;;;;;;-141.50;100.00;63355.56;4893566;29;20138;-78
2021/10/09 11:14:29;;;;;;;11.77;4.93;;;;;;;-141.50;100.00;63355.56;4892725;29;20434;-78
2021/10/09 11:17:03;;;;;;;12.43;4.90;;;;;;;-141.50;100.00;63355.56;4893348;29;20111;-78
2021/10/09 11:20:04;;;;;;;12.77;4.75;;;;;;;-141.50;100.00;63355.56;4893169;29;20063;-78
2021/10/09 11:22:49;;;;;;;9.70;3.90;;;;;;;-141.50;100.00;63355.56;4882417;29;20175;-78
2021/10/09 11:25:26;;;;;;;10.87;4.37;;;;;;;-141.50;100.00;63355.56;4905607;29;20341;-78
2021/10/09 11:27:57;;;;;;;8.93;3.80;;;;;;;-141.50;100.00;63355.56;4912203;29;20713;-77
2021/10/09 11:30:24;;;;;;;9.50;3.53;;;;;;;-141.50;100.00;63355.56;4913677;29;20419;-79
2021/10/09 11:32:53;;;;;;;9.57;3.38;;;;;;;-141.50;100.00;63355.56;4912979;29;20062;-78
2021/10/09 11:35:36;;;;;;;11.77;4.30;;;;;;;-141.50;100.00;63355.56;4928157;29;20087;-78
2021/10/09 11:38:18;;;;;;;8.07;4.25;;;;;;;-141.50;100.00;63355.56;4912465;29;20051;-79
2021/10/09 11:40:54;;;;;;;11.07;3.90;;;;;;;-141.50;100.00;63355.56;4928766;29;20146;-79
2021/10/09 11:43:50;;;;;;;;;;;;;;;-141.50;100.00;63355.56;4912945;29;20051;-79
2021/10/09 11:55:27;;;;;;;6.25;1.63;;;;;;;-141.50;100.00;63355.56;4918929;29;20055;-80
2021/10/09 11:57:55;;;;;;;7.95;2.00;;;;;;;-141.50;100.00;63355.56;4894542;29;20536;-79
2021/10/09 12:00:27;;;;;;;6.18;1.75;;;;;;;-141.50;100.00;63355.56;4896123;29;20108;-79
2021/10/09 12:02:55;;;;;;;2.33;1.67;;;;;;;-141.50;100.00;63355.56;4896165;29;20056;-79
2021/10/09 12:05:23;;;;;;;2.85;1.67;;;;;;;-141.50;100.00;63355.56;4895320;29;20059;-79
2021/10/09 12:08:14;;;;;;;4.88;1.80;;;;;;;-141.50;100.00;63355.56;4894396;29;20050;-79
2021/10/09 12:11:01;;;;;;;4.03;1.80;;;;;;;-141.50;100.00;63355.56;4962787;23;20056;-80
2021/10/09 12:13:28;;;;;;;2.88;1.67;;;;;;;-141.50;100.00;63355.56;4965678;28;20265;-80
2021/10/09 12:16:08;;;;;;;6.47;1.65;;;;;;;-141.50;100.00;63355.56;4985064;28;20142;-78
2021/10/09 12:19:04;;;;;;;3.63;1.40;;;;;;;-141.50;100.00;63355.56;4967281;28;20478;-80
2021/10/09 12:21:34;;;;;;;3.88;1.60;;;;;;;-141.50;100.00;63355.56;4948728;28;20168;-81
2021/10/09 12:24:19;;;;;;;4.22;1.80;;;;;;;-141.50;100.00;63355.56;4980209;28;20047;-81
2021/10/09 12:27:13;;;;;;;3.05;1.67;;;;;;;-141.50;100.00;63355.56;4981302;28;20117;-79
2021/10/09 12:30:04;;;;;;;4.03;1.70;;;;;;;-141.50;100.00;63355.56;4964173;28;20050;-79
2021/10/09 12:32:42;;;;;;;2.58;1.70;;;;;;;-141.50;100.00;63355.56;4965518;28;20389;-78
2021/10/09 12:35:12;;;;;;;4.95;1.67;;;;;;;-141.50;100.00;63355.56;4968264;28;20078;-80
2021/10/09 12:37:53;;;;;;;5.28;2.08;;;;;;;-141.50;100.00;63355.56;4952735;28;20082;-83
2021/10/09 12:40:20;;;;;;;4.13;1.73;;;;;;;-141.50;100.00;63355.56;4966688;28;20495;-82
2021/10/09 12:42:52;;;;;;;3.58;1.70;;;;;;;-141.50;100.00;63355.56;4964076;28;20050;-82
2021/10/09 12:45:20;;;;;;;3.30;1.50;;;;;;;-141.50;100.00;63355.56;4970885;28;20072;-81
2021/10/09 12:47:53;;;;;;;3.60;1.45;;;;;;;-141.50;100.00;63355.56;4988074;28;20050;-81
2021/10/09 12:50:20;;;;;;;3.50;1.60;;;;;;;-141.50;100.00;63355.56;4986776;28;20064;-81
2021/10/09 12:52:47;;;;;;;4.07;1.65;;;;;;;-141.50;100.00;63355.56;4989302;28;20487;-83
2021/10/09 12:55:18;;;;;;;3.97;1.50;;;;;;;-141.50;100.00;63355.56;4966974;28;20054;-81
2021/10/09 12:57:52;;;;;;;6.15;1.90;;;;;;;-141.50;100.00;63355.56;4951296;28;20679;-82
2021/10/09 13:00:20;;;;;;;5.90;2.00;;;;;;;-141.50;100.00;63355.56;4968752;28;20067;-82
2021/10/09 13:02:48;;;;;;;6.38;1.80;;;;;;;-141.50;100.00;63355.56;4988190;28;20145;-83
2021/10/09 13:05:14;;;;;;;3.05;1.70;;;;;;;-141.50;100.00;63355.56;4989418;28;20116;-81
2021/10/09 13:07:41;;;;;;;5.25;1.83;;;;;;;-141.50;100.00;63355.56;4971614;28;20081;-84
2021/10/09 13:10:10;;;;;;;6.32;1.98;;;;;;;-141.50;100.00;63355.56;4970160;28;20087;-81
2021/10/09 13:12:37;;;;;;;3.25;2.00;;;;;;;-141.50;100.00;63355.56;4970764;28;20051;-81
2021/10/09 13:15:04;;;;;;;4.90;1.60;;;;;;;-141.50;100.00;63355.56;4969483;28;20105;-82
2021/10/09 13:17:31;;;;;;;5.53;1.70;;;;;;;-141.50;100.00;63355.56;4978365;28;20050;-83
2021/10/09 13:19:58;;;;;;;4.03;1.90;;;;;;;-141.50;100.00;63355.56;4965948;28;20054;-83
2021/10/09 13:22:25;;;;;;;2.85;1.90;;;;;;;-141.50;100.00;63355.56;4961910;28;20164;-81
2021/10/09 13:24:51;;;;;;;5.25;1.80;;;;;;;-141.50;100.00;63355.56;4970662;28;20046;-81
2021/10/09 13:27:18;;;;;;;2.22;1.60;;;;;;;-141.50;100.00;63355.56;4986618;28;20174;-81
2021/10/09 13:29:44;;;;;;;3.50;2.13;;;;;;;-141.50;100.00;63355.56;4984969;28;20125;-81
2021/10/09 13:32:11;;;;;;;4.68;1.88;;;;;;;-141.50;100.00;63355.56;4973768;28;20118;-81
2021/10/09 13:34:38;;;;;;;6.05;1.80;;;;;;;-141.50;100.00;63355.56;4985916;28;20438;-82
2021/10/09 13:37:05;;;;;;;4.07;1.88;;;;;;;-141.50;100.00;63355.56;4966385;28;20473;-80
2021/10/09 13:39:32;;;;;;;4.32;2.00;;;;;;;-141.50;100.00;63355.56;4951710;28;20046;-81
2021/10/09 13:41:58;;;;;;;5.28;2.00;;;;;;;-141.50;100.00;63355.56;4957099;28;20133;-81